RELEVES METEO NEUVILLE
Donnes mto: Actuelle lundi, 10/08/2020 20:55
Date Horaire Temp. E. Hum. E. P.atmo. Pluie Vent Direction Direction P. de rose Temp au vent Rafales
10/08/2020 20:55 29,7 C 52 % 1010,7 hPa 0,0 mm 0,0 km/h (0 Bft) E-NE 57 18,8 C 29,7 C 1,6 km/h (1 Bft)
10/08/2020 20:50 29,8 C 52 % 1010,7 hPa 0,0 mm 0,0 km/h (0 Bft) E-NE 57 18,9 C 29,8 C 0,0 km/h (0 Bft)
10/08/2020 20:45 30,1 C 51 % 1010,7 hPa 0,0 mm 0,0 km/h (0 Bft) E-NE 57 18,8 C 30,1 C 0,0 km/h (0 Bft)
10/08/2020 20:40 30,3 C 50 % 1010,8 hPa 0,0 mm 0,1 km/h (0 Bft) E-NE 57 18,7 C 30,3 C 3,2 km/h (1 Bft)
10/08/2020 20:35 30,4 C 50 % 1010,7 hPa 0,0 mm 0,3 km/h (0 Bft) E-NE 57 18,8 C 30,4 C 4,8 km/h (1 Bft)
10/08/2020 20:30 30,8 C 49 % 1010,8 hPa 0,0 mm 0,0 km/h (0 Bft) E-NE 59 18,8 C 30,8 C 0,0 km/h (0 Bft)
10/08/2020 20:25 31,2 C 47 % 1010,7 hPa 0,0 mm 1,3 km/h (1 Bft) E-NE 59 18,5 C 31,2 C 6,4 km/h (2 Bft)
10/08/2020 20:20 31,3 C 47 % 1010,7 hPa 0,0 mm 0,9 km/h (0 Bft) NE 44 18,6 C 31,3 C 6,4 km/h (2 Bft)
10/08/2020 20:15 31,5 C 47 % 1010,7 hPa 0,0 mm 0,6 km/h (0 Bft) NE 42 18,8 C 31,5 C 3,2 km/h (1 Bft)
10/08/2020 20:10 31,8 C 45 % 1010,7 hPa 0,0 mm 3,0 km/h (1 Bft) NE 39 18,4 C 31,8 C 11,3 km/h (2 Bft)
10/08/2020 20:05 31,9 C 44 % 1010,6 hPa 0,0 mm 4,4 km/h (1 Bft) E-NE 61 18,1 C 31,9 C 11,3 km/h (2 Bft)
10/08/2020 20:00 32,1 C 44 % 1010,5 hPa 0,0 mm 4,9 km/h (1 Bft) NE 51 18,3 C 32,1 C 9,7 km/h (2 Bft)
10/08/2020 19:55 32,3 C 43 % 1010,3 hPa 0,0 mm 5,4 km/h (1 Bft) E-NE 64 18,1 C 32,3 C 11,3 km/h (2 Bft)
10/08/2020 19:50 32,4 C 42 % 1010,3 hPa 0,0 mm 5,2 km/h (1 Bft) E-NE 78 17,8 C 32,4 C 11,3 km/h (2 Bft)
10/08/2020 19:45 32,6 C 42 % 1010,2 hPa 0,0 mm 4,1 km/h (1 Bft) N-NE 19 18,0 C 32,6 C 11,3 km/h (2 Bft)
10/08/2020 19:40 32,7 C 41 % 1010,2 hPa 0,0 mm 4,0 km/h (1 Bft) NE 35 17,7 C 32,7 C 11,3 km/h (2 Bft)
10/08/2020 19:35 32,7 C 41 % 1010,4 hPa 0,0 mm 4,3 km/h (1 Bft) NE 46 17,7 C 32,7 C 9,7 km/h (2 Bft)
10/08/2020 19:30 32,7 C 40 % 1010,3 hPa 0,0 mm 6,6 km/h (2 Bft) E-NE 74 17,3 C 32,7 C 12,9 km/h (3 Bft)
10/08/2020 19:25 32,8 C 40 % 1010,3 hPa 0,0 mm 5,2 km/h (1 Bft) N-NE 29 17,4 C 32,8 C 14,5 km/h (3 Bft)
10/08/2020 19:20 32,9 C 39 % 1010,3 hPa 0,0 mm 4,5 km/h (1 Bft) NE 51 17,1 C 32,9 C 11,3 km/h (2 Bft)
10/08/2020 19:15 32,9 C 39 % 1010,3 hPa 0,0 mm 5,4 km/h (1 Bft) NE 46 17,1 C 32,9 C 12,9 km/h (3 Bft)
_ Min-Heure 07:10 14:35 18:50 - 01:35 - - 14:35 07:00 01:55
Minimum _ 21,6 C 34 % 1010,2 hPa - 0,0 km/h (0 Bft) - - 15,7 C 21,7 C 0,0 km/h (0 Bft)
_ Max-Heure 16:15 07:05 01:30 00:00 15:50 - - 12:50 16:10 00:05
Maximum _ 35,1 C 79 % 1014,0 hPa 0,0 mm 9,2 km/h
N-NE (2 Bft)
- - 20,0 C 34,9 C 22,5 km/h
S (4 Bft)
Moyenne _ 28,6 C 54 % 1012,0 hPa #0,0 mm 2,2 km/h (1 Bft) E-NE - 17,8 C 28,6 C 6,3 km/h (2 Bft)
NEUVILLE ST REMY